Latest Weather Observations for Perisher Valley

IDN60801

Issued at 9:03 pm EST Thursday 30 June 2022 (issued every 10 minutes, with the page automatically refreshed every 10 minutes)

About weather observations | Map of weather stations | Latest weather observations for NSW | Other Formats
Station Details ID: 071075 Name: PERISHER VALLEY AWS Lat: -36.41 Lon: 148.41 Height: 1738.0 m
Data from the previous 72 hours. | See also: Recent months at Perisher Valley
Date/Time
EST
Temp
°C
App
Temp
°C
Dew
Point
°C
Rel
Hum
%
Delta-T
°C
Wind Press
QNH
hPa
Press
MSL
hPa
Rain since
9am
mm
Dir  Spd
km/h
Gust
km/h
Spd
kts
Gust
kts
30/09:00pm -0.8 -3.7 -0.8 100 0.0 E 4 7 2 4 - - 1.2
30/08:30pm -0.2 -3.5 -0.2 100 0.0 S 7 11 4 6 - - 1.2
30/08:00pm 0.0 -2.8 -0.1 99 0.0 SW 4 9 2 5 - - 1.2
30/07:30pm 0.0 -3.1 0.0 100 0.0 SSW 6 9 3 5 - - 1.0
30/07:00pm 0.0 -2.4 0.0 100 0.0 WNW 2 4 1 2 - - 1.0
30/06:30pm 0.2 -2.1 0.1 99 0.0 SE 2 7 1 4 - - 1.0
30/06:00pm 0.3 -2.1 -0.3 96 0.2 SW 2 6 1 3 - - 1.0
30/05:30pm 0.3 -1.7 -0.4 95 0.3 CALM 0 2 0 1 - - 1.0
30/05:00pm 0.3 -2.1 -0.5 94 0.3 WSW 2 4 1 2 - - 1.0
30/04:30pm 0.6 -2.6 -0.4 93 0.4 SW 6 9 3 5 - - 1.0
30/04:00pm 1.0 -1.0 -0.3 91 0.5 CALM 0 4 0 2 - - 0.8
30/03:30pm 1.1 -1.3 -0.5 89 0.6 WSW 2 4 1 2 - - 0.4
30/03:00pm 1.4 -1.0 -0.4 88 0.7 SSW 2 4 1 2 - - 0.4
30/02:30pm 1.4 -1.0 -0.4 88 0.7 ENE 2 6 1 3 - - 0.2
30/02:00pm 1.7 -0.8 -0.9 83 1.1 WSW 2 6 1 3 - - 0.0
30/01:30pm 1.8 -1.5 -1.6 78 1.4 WSW 6 11 3 6 - - 0.0
30/01:00pm 1.6 -1.7 -1.1 82 1.1 WSW 6 15 3 8 - - 0.0
30/12:30pm 1.2 -2.7 -1.4 83 1.0 W 9 20 5 11 - - 0.0
30/12:00pm 2.4 -1.2 -2.3 71 1.8 W 7 13 4 7 - - 0.0
30/11:30am 3.4 0.7 -2.7 64 2.4 WSW 2 6 1 3 - - 0.0
30/11:00am 2.3 -0.7 -2.2 72 1.8 WSW 4 9 2 5 - - 0.0
30/10:30am 1.6 -1.8 -2.3 75 1.5 WSW 6 13 3 7 - - 0.0
30/10:00am 1.6 -1.5 -2.7 73 1.7 SW 4 11 2 6 - - 0.0
30/09:30am 1.0 -2.5 -2.6 77 1.4 SW 6 13 3 7 - - 0.0
30/09:00am 0.3 -3.0 -1.6 87 0.8 SW 6 11 3 6 - - 1.0
30/08:30am 0.1 -3.4 -1.0 92 0.4 SW 7 15 4 8 - - 1.0
30/08:00am 0.1 -3.3 -0.6 95 0.3 SW 7 15 4 8 - - 1.0
30/07:30am 0.1 -3.7 -0.5 96 0.2 SW 9 19 5 10 - - 1.0
30/07:00am -0.2 -3.2 -1.6 90 0.5 SW 4 7 2 4 - - 1.0
30/06:30am -0.3 -3.3 -2.0 88 0.6 SW 4 11 2 6 - - 1.0
30/06:00am -0.3 -3.9 -1.9 89 0.6 SW 7 17 4 9 - - 1.0
30/05:30am -0.3 -4.2 -1.4 92 0.4 SW 9 19 5 10 - - 0.8
30/05:00am -0.2 -4.0 -0.9 95 0.3 WSW 9 15 5 8 - - 0.2
30/04:30am -0.1 -3.6 -2.5 84 0.9 WSW 6 9 3 5 - - 0.0
30/04:00am 0.3 -3.4 -3.1 78 1.3 W 7 9 4 5 - - 0.0
30/03:30am 0.8 -2.8 -3.8 71 1.8 SW 6 11 3 6 - - 0.0
30/03:00am 0.8 -2.4 -3.8 71 1.8 SW 4 9 2 5 - - 0.0
30/02:30am 0.0 -3.8 -3.4 78 1.3 SW 7 15 4 8 - - 0.0
30/02:00am 0.4 -4.7 -5.4 65 2.1 WSW 13 24 7 13 - - 0.0
30/01:30am 0.2 -4.9 -5.0 68 1.9 WSW 13 24 7 13 - - 0.0
30/01:00am 0.0 -5.8 -4.4 72 1.6 WSW 17 26 9 14 - - 0.0
30/12:30am 0.7 -5.1 -8.3 51 3.0 WSW 15 28 8 15 - - 0.0
30/12:00am -0.4 -4.5 -6.2 65 2.0 WSW 7 17 4 9 - - 0.0
 
Date/Time
EST
Temp
°C
App
Temp
°C
Dew
Point
°C
Rel
Hum
%
Delta-T
°C
Wind Press
QNH
hPa
Press
MSL
hPa
Rain since
9am
mm
Dir  Spd
km/h
Gust
km/h
Spd
kts
Gust
kts
29/11:30pm 0.0 -5.3 -3.7 76 1.4 W 15 24 8 13 - - 0.0
29/11:00pm -0.2 -5.1 -3.4 79 1.2 WSW 13 22 7 12 - - 0.0
29/10:30pm 0.7 -4.1 -6.2 60 2.5 WSW 11 22 6 12 - - 0.0
29/10:00pm -0.2 -3.3 -6.2 64 2.1 NE 2 6 1 3 - - 0.0
29/09:30pm 0.4 -5.1 -5.2 66 2.0 WSW 15 28 8 15 - - 0.0
29/09:00pm -0.1 -7.8 -3.0 81 1.1 WNW 28 43 15 23 - - 0.0
29/08:53pm 0.2 -5.9 -3.7 75 1.5 WNW 19 37 10 20 - - 0.0
29/08:30pm 0.3 -3.2 -6.3 61 2.3 W 4 9 2 5 - - 0.0
29/08:00pm 0.7 -3.2 -11.6 39 3.8 NW 4 6 2 3 - - 0.0
29/07:30pm 0.8 -3.0 -9.5 46 3.4 N 4 7 2 4 - - 0.0
29/07:00pm 2.0 -2.8 -10.5 39 4.1 SSW 9 19 5 10 - - 0.0
29/06:30pm 0.2 -4.1 -4.6 70 1.8 W 9 24 5 13 - - 0.0
29/06:00pm 1.5 -2.7 -7.5 51 3.2 WSW 7 24 4 13 - - 0.0
29/05:30pm 0.2 -3.6 -3.9 74 1.5 SW 7 19 4 10 - - 0.0
29/05:00pm -0.2 -4.6 -2.3 86 0.8 SW 11 19 6 10 - - 0.0
29/04:30pm 0.1 -4.3 -2.8 81 1.1 S 11 20 6 11 - - 0.0
29/04:00pm 1.3 -3.0 -4.7 64 2.3 E 9 20 5 11 - - 0.0
29/03:30pm 0.9 -3.6 -3.6 72 1.7 WNW 11 28 6 15 - - 0.0
29/03:00pm 1.8 -1.9 -4.5 63 2.4 W 6 19 3 10 - - 0.0
29/02:30pm 3.5 -3.7 -9.5 38 4.5 W 22 41 12 22 - - 0.0
29/02:00pm 3.3 -3.6 -6.6 48 3.7 WSW 22 37 12 20 - - 0.0
29/01:30pm 5.5 -1.0 -20.7 13 7.1 WSW 15 28 8 15 - - 0.0
29/01:00pm 5.0 -3.2 -23.0 11 7.1 WSW 24 39 13 21 - - 0.0
29/12:31pm 4.8 -4.1 -19.6 15 6.7 W 28 48 15 26 - - 0.0
29/12:30pm 4.8 -3.7 -20.4 14 6.8 W 26 48 14 26 - - 0.0
29/12:24pm 4.5 -2.4 -14.3 24 5.9 WSW 19 48 10 26 - - 0.0
29/12:00pm 2.4 -3.6 -6.2 53 3.2 WSW 17 37 9 20 - - 0.0
29/11:30am 3.6 -1.1 -9.0 39 4.4 WSW 9 28 5 15 - - 0.0
29/11:00am 2.3 -1.9 -7.6 48 3.5 SSW 7 15 4 8 - - 0.0
29/10:30am 1.7 -2.0 -4.6 63 2.4 SSW 6 11 3 6 - - 0.0
29/10:00am 1.4 -2.2 -4.0 67 2.1 SW 6 17 3 9 - - 0.0
29/09:30am 0.8 -4.6 -4.6 67 2.0 WSW 15 22 8 12 - - 0.0
29/09:00am 0.9 -2.6 -6.2 59 2.5 SW 4 13 2 7 - - 0.0
29/08:30am 2.3 -2.1 -13.5 30 4.8 SSW 6 17 3 9 - - 0.0
29/08:00am 3.7 -1.1 -22.1 13 6.5 ESE 6 9 3 5 - - 0.0
29/07:30am 5.1 -1.0 -22.9 11 7.2 WSW 13 26 7 14 - - 0.0
29/07:00am 3.0 -3.2 -23.6 12 6.4 W 13 35 7 19 - - 0.0
29/06:30am 2.3 -2.4 -19.5 18 5.7 SSE 6 15 3 8 - - 0.0
29/06:00am 0.7 -3.5 -16.1 27 4.6 E 4 9 2 5 - - 0.0
29/05:30am 2.1 -2.6 -18.5 20 5.5 SW 6 19 3 10 - - 0.0
29/05:00am 1.9 -2.9 -21.2 16 5.7 WNW 6 19 3 10 - - 0.0
29/04:30am 1.2 -3.5 -18.7 21 5.1 SE 6 19 3 10 - - 0.0
29/04:00am 0.2 -3.9 -15.3 30 4.3 ESE 4 11 2 6 - - 0.0
29/03:30am -0.1 -3.7 -12.0 40 3.5 NNW 2 7 1 4 - - 0.0
29/03:00am 3.2 -3.8 -15.9 23 5.6 W 19 28 10 15 - - 0.0
29/02:30am 3.1 -3.9 -12.4 31 4.9 W 20 33 11 18 - - 0.0
29/02:00am 3.3 -1.9 -10.3 36 4.6 WSW 11 28 6 15 - - 0.0
29/01:30am -0.2 -3.9 -9.1 51 2.9 E 4 13 2 7 - - 0.0
29/01:00am -2.1 -5.9 -9.5 57 2.2 NE 4 6 2 3 - - 0.0
29/12:30am -1.1 -4.4 -8.7 56 2.4 WNW 2 4 1 2 - - 0.0
29/12:00am -1.9 -5.2 -8.8 59 2.1 WSW 2 4 1 2 - - 0.0
 
Date/Time
EST
Temp
°C
App
Temp
°C
Dew
Point
°C
Rel
Hum
%
Delta-T
°C
Wind Press
QNH
hPa
Press
MSL
hPa
Rain since
9am
mm
Dir  Spd
km/h
Gust
km/h
Spd
kts
Gust
kts
28/11:30pm -1.9 -4.9 -9.3 57 2.2 CALM 0 2 0 1 - - 0.0
28/11:00pm -0.6 -3.5 -8.5 55 2.5 CALM 0 4 0 2 - - 0.0
28/10:30pm -0.5 -3.8 -8.6 54 2.6 SW 2 6 1 3 - - 0.0
28/10:00pm -0.8 -4.5 -8.0 58 2.3 SW 4 6 2 3 - - 0.0
28/09:30pm -1.7 -5.4 -8.0 62 2.0 WSW 4 6 2 3 - - 0.0
28/09:00pm -1.2 -4.0 -7.3 63 2.0 CALM 0 2 0 1 - - 0.0
28/08:30pm -0.8 -4.0 -6.7 64 2.0 WSW 2 2 1 1 - - 0.0
28/08:00pm -0.5 -3.2 -5.9 67 1.9 CALM 0 4 0 2 - - 0.0
28/07:30pm 0.0 -3.1 -6.4 62 2.2 WSW 2 4 1 2 - - 0.0
28/07:00pm -0.4 -3.9 -6.4 64 2.0 WSW 4 7 2 4 - - 0.0
28/06:30pm -1.1 -4.3 -7.2 63 2.0 WSW 2 4 1 2 - - 0.0
28/06:00pm 0.2 -3.0 -7.5 56 2.6 SW 2 6 1 3 - - 0.0
28/05:30pm 0.9 -2.6 -6.6 57 2.7 SW 4 6 2 3 - - 0.0
28/05:00pm 1.8 -1.3 -6.5 54 3.0 SSW 2 2 1 1 - - 0.0
28/04:30pm 2.6 -0.2 -7.0 49 3.5 CALM 0 2 0 1 - - 0.0
28/04:00pm 3.1 -0.1 -7.1 47 3.8 SW 2 4 1 2 - - 0.0
28/03:30pm 5.1 2.2 -8.0 38 4.6 CALM 0 2 0 1 - - 0.0
28/03:00pm 4.0 0.7 -8.0 41 4.4 WSW 2 4 1 2 - - 0.0
28/02:30pm 5.9 2.5 -9.5 32 5.3 W 2 4 1 2 - - 0.0
28/02:00pm 7.6 4.4 -12.2 23 6.5 CALM 0 2 0 1 - - 0.0
28/01:30pm 8.8 5.7 -11.2 23 6.8 CALM 0 2 0 1 - - 0.0
28/01:00pm 7.5 3.8 -14.6 19 6.8 WSW 2 2 1 1 - - 0.0
28/12:30pm 7.0 2.8 -15.7 18 6.8 WSW 4 7 2 4 - - 0.0
28/12:00pm 7.9 4.1 -17.1 15 7.3 WSW 2 6 1 3 - - 0.0
28/11:30am 7.3 3.3 -21.2 11 8.0 WSW 2 6 1 3 - - 0.0
28/11:00am 6.2 2.2 -20.1 13 7.4 WSW 2 7 1 4 - - 0.0
28/10:30am 4.8 0.9 -18.9 16 6.6 WSW 2 6 1 3 - - 0.0
28/10:00am 5.1 1.0 -22.9 11 7.2 WSW 2 6 1 3 - - 0.0
28/09:30am 4.2 -0.3 -25.8 9 7.0 WSW 4 9 2 5 - - 0.0
28/09:00am 2.3 -1.7 -20.9 16 5.8 SW 2 6 1 3 - - 0.2
28/08:30am 0.7 -3.6 -19.6 20 5.1 SW 4 9 2 5 - - 0.2
28/08:00am -2.5 -6.7 -15.8 35 3.3 SW 4 7 2 4 - - 0.2
28/07:30am -3.9 -8.3 -13.0 49 2.3 SW 6 9 3 5 - - 0.2
28/07:00am -5.3 -9.4 -14.1 50 2.1 SW 4 9 2 5 - - 0.2
28/06:30am -4.2 -8.3 -14.9 43 2.6 SW 4 9 2 5 - - 0.2
28/06:00am -4.6 -8.7 -15.0 44 2.5 SW 4 9 2 5 - - 0.2
28/05:30am -5.9 -10.3 -13.5 55 1.8 SW 6 9 3 5 - - 0.2
28/05:00am -5.9 -10.4 -14.1 52 1.9 SW 6 9 3 5 - - 0.2
28/04:30am -6.4 -10.1 -14.4 53 1.8 SW 2 7 1 4 - - 0.2
28/04:00am -4.0 -8.4 -13.6 47 2.4 WSW 6 11 3 6 - - 0.2
28/03:30am -6.8 -11.3 -11.9 67 1.1 SW 7 9 4 5 - - 0.0
28/03:00am -6.9 -10.9 -12.0 67 1.1 SW 4 7 2 4 - - 0.0
28/02:30am -6.2 -10.6 -12.9 59 1.5 SW 6 9 3 5 - - 0.0
28/02:00am -4.3 -9.6 -12.4 53 2.1 WSW 11 13 6 7 - - 0.0
28/01:30am -4.7 -9.1 -10.4 64 1.5 WSW 7 11 4 6 - - 0.0
28/01:00am -4.5 -8.7 -7.6 79 0.8 SW 7 11 4 6 - - 0.0
28/12:30am -4.5 -8.6 -8.2 75 1.0 SSW 6 11 3 6 - - 0.0
28/12:00am -5.2 -8.4 -7.2 86 0.4 SSE 2 6 1 3 - - 0.0
 
Date/Time
EST
Temp
°C
App
Temp
°C
Dew
Point
°C
Rel
Hum
%
Delta-T
°C
Wind Press
QNH
hPa
Press
MSL
hPa
Rain since
9am
mm
Dir  Spd
km/h
Gust
km/h
Spd
kts
Gust
kts
27/11:30pm -4.9 -9.8 -6.6 88 0.3 SSW 11 19 6 10 - - 0.0
27/11:00pm -4.3 -9.1 -5.7 90 0.3 SW 11 20 6 11 - - 0.0
27/10:30pm -3.7 -8.4 -4.8 92 0.2 SSW 11 20 6 11 - - 0.0
27/10:00pm -3.4 -8.4 -4.4 93 0.2 SSW 13 24 7 13 - - 0.0
27/09:30pm -3.3 -8.3 -4.0 95 0.1 SSW 13 28 7 15 - - 0.0

Other formats

Comma delimited format used in spreadsheet applications
http://www.bom.gov.au/fwo/IDN60801/IDN60801.94915.axf

JavaScript Object Notation format (JSON) in row-major order
http://www.bom.gov.au/fwo/IDN60801/IDN60801.94915.json

Data quality

Most of these data are generated automatically and are frequently updated. Quality checks on data are not normally performed. It is possible for incorrect values to appear. Refer to information at About Latest Weather Observations and please check the disclaimer before using these data.